Time;durP1;ratioP1;P1;durP2;ratioP2;P2;SDS_P1;SDS_P2;PMS_P1;PMS_P2;Temp;Humidity;BMP_temperature;BMP_pressure;BME280_temperature;BME280_humidity;BME280_pressure;Samples;Min_cycle;Max_cycle;Signal;HPM_P1;HPM_P2
2021/10/29 00:01:09;;;;;;;;;;;11.70;99.90;;;;;;1895765;76;20120;-73
2021/10/29 00:03:37;;;;;;;;;;;11.70;99.90;;;;;;1895922;76;20159;-72
2021/10/29 00:06:04;;;;;;;;;;;11.70;99.90;;;;;;1928030;73;20141;-72
2021/10/29 00:08:31;;;;;;;;;;;11.60;99.90;;;;;;1928913;73;20155;-72
2021/10/29 00:10:58;;;;;;;;;;;11.50;99.90;;;;;;1928678;74;20161;-72
2021/10/29 00:13:25;;;;;;;;;;;11.40;99.90;;;;;;1928639;74;20207;-73
2021/10/29 00:15:52;;;;;;;;;;;11.50;99.90;;;;;;1928482;74;20133;-73
2021/10/29 00:18:19;;;;;;;;;;;11.30;99.90;;;;;;1928943;73;20161;-73
2021/10/29 00:20:46;;;;;;;;;;;11.40;99.90;;;;;;1928545;74;20431;-73
2021/10/29 00:23:13;;;;;;;;;;;11.20;99.90;;;;;;1928783;73;20494;-73
2021/10/29 00:25:39;;;;;;;;;;;11.10;99.90;;;;;;1928801;74;20191;-73
2021/10/29 00:28:06;;;;;;;;;;;11.00;99.90;;;;;;1928800;74;20427;-73
2021/10/29 00:30:33;;;;;;;;;;;11.20;99.90;;;;;;1909644;74;20187;-73
2021/10/29 00:33:00;;;;;;;;;;;11.30;99.90;;;;;;1895958;76;20155;-72
2021/10/29 00:35:27;;;;;;;;;;;11.20;99.90;;;;;;1895978;76;20124;-72
2021/10/29 00:37:54;;;;;;;;;;;11.10;99.90;;;;;;1895975;76;20156;-73
2021/10/29 00:40:21;;;;;;;;;;;11.10;99.90;;;;;;1895878;76;20385;-72
2021/10/29 00:42:48;;;;;;;;;;;11.10;99.90;;;;;;1895498;76;20491;-73
2021/10/29 00:45:15;;;;;;;;;;;11.10;99.90;;;;;;1895916;76;20148;-72
2021/10/29 00:47:42;;;;;;;;;;;11.10;99.90;;;;;;1895986;76;20441;-72
2021/10/29 00:50:09;;;;;;;;;;;11.10;99.90;;;;;;1895905;76;20144;-72
2021/10/29 00:52:36;;;;;;;;;;;11.10;99.90;;;;;;1896092;76;20159;-72
2021/10/29 00:55:03;;;;;;;;;;;11.00;99.90;;;;;;1895661;76;20191;-72
2021/10/29 00:57:30;;;;;;;;;;;11.00;99.90;;;;;;1896123;76;20163;-72
2021/10/29 00:59:57;;;;;;;;;;;11.00;99.90;;;;;;1895821;76;20123;-73
2021/10/29 01:02:24;;;;;;;;;;;10.90;99.90;;;;;;1941038;72;20170;-73
2021/10/29 01:04:51;;;;;;;;;;;11.00;99.90;;;;;;1963030;73;20221;-73
2021/10/29 01:07:17;;;;;;;;;;;11.00;99.90;;;;;;1963379;73;20162;-72
2021/10/29 01:09:44;;;;;;;;;;;10.90;99.90;;;;;;1963164;73;20472;-73
2021/10/29 01:12:11;;;;;;;;;;;10.90;99.90;;;;;;1963349;72;20157;-73
2021/10/29 01:14:38;;;;;;;;;;;10.90;99.90;;;;;;1963183;73;20467;-72
2021/10/29 01:17:05;;;;;;;;;;;10.90;99.90;;;;;;1963028;73;20158;-72
2021/10/29 01:19:32;;;;;;;;;;;10.90;99.90;;;;;;1963380;73;20153;-73
2021/10/29 01:22:00;;;;;;;;;;;10.90;99.90;;;;;;1963306;72;20190;-73
2021/10/29 01:24:28;;;;;;;;;;;11.00;99.90;;;;;;1963352;73;20193;-73
2021/10/29 01:26:55;;;;;;;;;;;10.90;99.90;;;;;;1935714;73;20191;-72
2021/10/29 01:29:22;;;;;;;;;;;10.70;99.90;;;;;;1896046;76;20167;-72
2021/10/29 01:31:49;;;;;;;;;;;10.80;99.90;;;;;;1895893;76;20159;-72
2021/10/29 01:34:16;;;;;;;;;;;10.80;99.90;;;;;;1895928;76;20128;-73
2021/10/29 01:36:44;;;;;;;;;;;10.90;99.90;;;;;;1895746;76;20112;-73
2021/10/29 01:39:12;;;;;;;;;;;10.90;99.90;;;;;;1896153;76;20194;-73
2021/10/29 01:41:39;;;;;;;;;;;10.90;99.90;;;;;;1895439;76;20163;-73
2021/10/29 01:44:06;;;;;;;;;;;10.80;99.90;;;;;;1896053;76;20120;-72
2021/10/29 01:46:33;;;;;;;;;;;10.90;99.90;;;;;;1895707;76;20221;-72
2021/10/29 01:49:00;;;;;;;;;;;10.70;99.90;;;;;;1895922;76;20129;-73
2021/10/29 01:51:27;;;;;;;;;;;10.70;99.90;;;;;;1895762;76;20179;-72
2021/10/29 01:53:54;;;;;;;;;;;10.70;99.90;;;;;;1895941;76;20136;-73
2021/10/29 01:56:20;;;;;;;;;;;10.70;99.90;;;;;;1895834;76;20120;-72
2021/10/29 01:58:48;;;;;;;;;;;10.70;99.90;;;;;;1895755;76;20186;-72
2021/10/29 02:01:15;;;;;;;;;;;10.80;99.90;;;;;;1895871;76;20120;-73
2021/10/29 02:03:42;;;;;;;;;;;10.80;99.90;;;;;;1895935;76;20113;-75
2021/10/29 02:06:09;;;;;;;;;;;10.70;99.90;;;;;;1926994;73;20110;-76
2021/10/29 02:08:36;;;;;;;;;;;10.80;99.90;;;;;;1928882;73;20171;-75
2021/10/29 02:11:03;;;;;;;;;;;10.70;99.90;;;;;;1928726;74;20157;-75
2021/10/29 02:13:30;;;;;;;;;;;10.70;99.90;;;;;;1928853;74;20203;-75
2021/10/29 02:15:57;;;;;;;;;;;10.70;99.90;;;;;;1928678;73;20107;-74
2021/10/29 02:18:23;;;;;;;;;;;10.90;99.90;;;;;;1928794;74;20165;-75
2021/10/29 02:20:50;;;;;;;;;;;10.70;99.90;;;;;;1928746;74;20196;-75
2021/10/29 02:23:17;;;;;;;;;;;10.70;99.90;;;;;;1928848;74;20113;-75
2021/10/29 02:25:45;;;;;;;;;;;10.60;99.90;;;;;;1928732;74;20172;-75
2021/10/29 02:28:13;;;;;;;;;;;10.50;99.90;;;;;;1915122;73;20223;-76
2021/10/29 02:30:40;;;;;;;;;;;10.50;99.90;;;;;;1896024;76;20156;-75
2021/10/29 02:33:08;;;;;;;;;;;10.40;99.90;;;;;;1895848;76;20113;-74
2021/10/29 02:35:35;;;;;;;;;;;10.40;99.90;;;;;;1895809;76;20164;-75
2021/10/29 02:38:01;;;;;;;;;;;10.30;99.90;;;;;;1895925;76;20241;-74
2021/10/29 02:40:29;;;;;;;;;;;10.40;99.90;;;;;;1895859;76;20156;-74
2021/10/29 02:42:55;;;;;;;;;;;10.30;99.90;;;;;;1895868;76;20146;-74
2021/10/29 02:45:22;;;;;;;;;;;10.30;99.90;;;;;;1895601;76;20199;-74
2021/10/29 02:47:49;;;;;;;;;;;10.40;99.90;;;;;;1895611;76;20120;-74
2021/10/29 02:50:17;;;;;;;;;;;10.30;99.90;;;;;;1895897;76;20170;-74
2021/10/29 02:52:44;;;;;;;;;;;10.30;99.90;;;;;;1895855;76;20156;-75
2021/10/29 02:55:11;;;;;;;;;;;10.40;99.90;;;;;;1931268;73;20135;-74
2021/10/29 02:57:38;;;;;;;;;;;10.40;99.90;;;;;;1928838;74;20173;-74
2021/10/29 03:00:11;;;;;;;;;;;10.50;99.90;;;;;;1928822;73;20126;-74
2021/10/29 03:02:38;;;;;;;;;;;10.40;99.90;;;;;;1928843;74;20148;-74
2021/10/29 03:05:05;;;;;;;;;;;10.50;99.90;;;;;;1928702;74;20189;-74
2021/10/29 03:07:33;;;;;;;;;;;10.50;99.90;;;;;;1928877;74;20391;-74
2021/10/29 03:09:59;;;;;;;;;;;10.50;99.90;;;;;;1928882;74;20145;-74
2021/10/29 03:12:26;;;;;;;;;;;10.30;99.90;;;;;;1928864;74;20764;-76
2021/10/29 03:14:53;;;;;;;;;;;10.30;99.90;;;;;;1928700;74;20180;-74
2021/10/29 03:17:20;;;;;;;;;;;10.20;99.90;;;;;;1928894;74;20146;-74
2021/10/29 03:19:48;;;;;;;;;;;10.30;99.90;;;;;;1928869;73;20181;-74
2021/10/29 03:22:15;;;;;;;;;;;10.30;99.90;;;;;;1928855;74;20158;-75
2021/10/29 03:24:41;;;;;;;;;;;10.30;99.90;;;;;;1928880;73;20150;-74
2021/10/29 03:27:08;;;;;;;;;;;10.40;99.90;;;;;;1928769;74;20444;-74
2021/10/29 03:29:37;;;;;;;;;;;10.40;99.90;;;;;;1900364;74;20179;-75
2021/10/29 03:32:04;;;;;;;;;;;10.50;99.90;;;;;;1895668;76;20220;-74
2021/10/29 03:34:30;;;;;;;;;;;10.40;99.90;;;;;;1895884;76;20108;-75
2021/10/29 03:36:57;;;;;;;;;;;10.30;99.90;;;;;;1895759;76;20163;-75
2021/10/29 03:39:31;;;;;;;;;;;10.20;99.90;;;;;;1895843;76;20159;-74
2021/10/29 03:41:58;;;;;;;;;;;10.20;99.90;;;;;;1894718;74;20196;-74
2021/10/29 03:46:56;;;;;;;;;;;10.20;99.90;;;;;;1895617;76;20246;-74
2021/10/29 03:49:29;;;;;;;;;;;10.20;99.90;;;;;;1895658;75;20453;-74
2021/10/29 03:51:57;;;;;;;;;;;10.20;99.90;;;;;;1895863;74;20171;-75
2021/10/29 03:54:26;;;;;;;;;;;10.30;99.90;;;;;;1895709;74;20145;-74
2021/10/29 03:59:27;;;;;;;;;;;10.30;99.90;;;;;;1895953;76;20120;-74
2021/10/29 04:01:54;;;;;;;;;;;10.30;99.90;;;;;;1895916;76;20160;-75
2021/10/29 04:04:21;;;;;;;;;;;10.20;99.90;;;;;;1895926;76;20406;-74
2021/10/29 04:06:48;;;;;;;;;;;10.20;99.90;;;;;;1895747;76;20205;-75
2021/10/29 04:09:15;;;;;;;;;;;10.10;99.90;;;;;;1896027;76;20201;-74
2021/10/29 04:11:41;;;;;;;;;;;10.20;99.90;;;;;;1903659;73;20217;-74
2021/10/29 04:14:12;;;;;;;;;;;10.10;99.90;;;;;;1968574;73;20163;-74
2021/10/29 04:16:40;;;;;;;;;;;10.10;99.90;;;;;;1970221;73;20409;-74
2021/10/29 04:19:08;;;;;;;;;;;10.00;99.90;;;;;;1970024;73;20162;-74
2021/10/29 04:21:35;;;;;;;;;;;9.90;99.90;;;;;;1970195;73;20194;-75
2021/10/29 04:24:02;;;;;;;;;;;10.00;99.90;;;;;;1970264;72;20170;-74
2021/10/29 04:26:29;;;;;;;;;;;10.00;99.90;;;;;;1970240;73;20151;-74
2021/10/29 04:28:56;;;;;;;;;;;10.10;99.90;;;;;;1970281;73;20178;-74
2021/10/29 04:31:27;;;;;;;;;;;10.00;99.90;;;;;;1970388;73;20158;-75
2021/10/29 04:33:52;;;;;;;;;;;10.00;99.90;;;;;;1954366;72;20176;-75
2021/10/29 04:36:19;;;;;;;;;;;10.00;99.90;;;;;;1928725;74;20168;-75
2021/10/29 04:38:47;;;;;;;;;;;9.90;99.90;;;;;;1928857;74;20204;-74
2021/10/29 04:41:14;;;;;;;;;;;10.10;99.90;;;;;;1928957;74;20106;-75
2021/10/29 04:43:41;;;;;;;;;;;10.00;99.90;;;;;;1928851;74;20211;-75
2021/10/29 04:46:08;;;;;;;;;;;10.00;99.90;;;;;;1928780;74;20149;-74
2021/10/29 04:48:35;;;;;;;;;;;10.00;99.90;;;;;;1948638;73;20205;-75
2021/10/29 04:51:02;;;;;;;;;;;9.90;99.90;;;;;;1970341;73;20154;-73
2021/10/29 04:53:29;;;;;;;;;;;10.00;99.90;;;;;;1970394;72;20166;-75
2021/10/29 04:55:56;;;;;;;;;;;9.90;99.90;;;;;;1970258;73;20170;-75
2021/10/29 04:58:22;;;;;;;;;;;10.10;99.90;;;;;;1970393;73;20119;-75
2021/10/29 05:00:49;;;;;;;;;;;9.90;99.90;;;;;;1970306;73;20166;-74
2021/10/29 05:03:16;;;;;;;;;;;9.90;99.90;;;;;;1970374;72;20179;-74
2021/10/29 05:05:43;;;;;;;;;;;10.10;99.90;;;;;;1970158;73;20202;-75
2021/10/29 05:08:10;;;;;;;;;;;10.00;99.90;;;;;;1970296;73;20213;-74
2021/10/29 05:10:37;;;;;;;;;;;10.00;99.90;;;;;;1970401;73;20119;-74
2021/10/29 05:13:03;;;;;;;;;;;10.00;99.90;;;;;;1970222;72;20186;-75
2021/10/29 05:15:31;;;;;;;;;;;10.10;99.90;;;;;;1970223;73;20153;-75
2021/10/29 05:17:57;;;;;;;;;;;10.00;99.90;;;;;;1970297;73;20178;-74
2021/10/29 05:20:24;;;;;;;;;;;10.00;99.90;;;;;;1970289;73;20162;-74
2021/10/29 05:22:51;;;;;;;;;;;10.10;99.90;;;;;;1970230;72;20119;-74
2021/10/29 05:25:18;;;;;;;;;;;10.00;99.90;;;;;;1970237;73;20181;-74
2021/10/29 05:27:45;;;;;;;;;;;10.00;99.90;;;;;;1970410;73;20149;-74
2021/10/29 05:30:11;;;;;;;;;;;10.00;99.90;;;;;;1939173;73;20237;-74
2021/10/29 05:32:38;;;;;;;;;;;10.00;99.90;;;;;;1895865;76;20152;-75
2021/10/29 05:35:06;;;;;;;;;;;10.00;99.90;;;;;;1895804;76;20205;-75
2021/10/29 05:37:34;;;;;;;;;;;10.10;99.90;;;;;;1895924;76;20171;-74
2021/10/29 05:40:01;;;;;;;;;;;10.00;99.90;;;;;;1895934;76;20120;-75
2021/10/29 05:42:27;;;;;;;;;;;9.90;99.90;;;;;;1895922;76;20124;-76
2021/10/29 05:44:55;;;;;;;;;;;9.80;99.90;;;;;;1895777;76;20152;-74
2021/10/29 05:47:21;;;;;;;;;;;9.90;99.90;;;;;;1895921;76;20198;-74
2021/10/29 05:49:48;;;;;;;;;;;9.90;99.90;;;;;;1895912;76;20174;-74
2021/10/29 05:52:20;;;;;;;;;;;9.80;99.90;;;;;;1895857;76;20163;-74
2021/10/29 05:55:13;;;;;;;;;;;9.80;99.90;;;;;;1894929;75;20448;-74
2021/10/29 05:57:15;;;;;;;;;;;9.80;99.90;;;;;;1890473;75;20167;-75
2021/10/29 05:59:42;;;;;;;;;;;9.70;99.90;;;;;;1895920;76;20120;-74
2021/10/29 06:02:08;;;;;;;;;;;9.80;99.90;;;;;;1895904;76;20160;-75
2021/10/29 06:04:35;;;;;;;;;;;9.80;99.90;;;;;;1955600;73;20170;-75
2021/10/29 06:07:02;;;;;;;;;;;9.90;99.90;;;;;;1970176;73;20408;-74
2021/10/29 06:09:29;;;;;;;;;;;9.90;99.90;;;;;;1970266;73;20174;-75
2021/10/29 06:11:56;;;;;;;;;;;9.80;99.90;;;;;;1970359;72;20108;-75
2021/10/29 06:14:23;;;;;;;;;;;9.80;99.90;;;;;;1970187;73;20483;-75
2021/10/29 06:16:50;;;;;;;;;;;9.50;99.90;;;;;;1970054;73;20185;-75
2021/10/29 06:19:17;;;;;;;;;;;9.60;99.90;;;;;;1970187;73;20174;-74
2021/10/29 06:24:15;;;;;;;;;;;9.60;99.90;;;;;;1970407;73;20108;-75
2021/10/29 06:29:21;;;;;;;;;;;9.70;99.90;;;;;;1925579;74;20235;-75
2021/10/29 06:31:48;;;;;;;;;;;9.70;99.90;;;;;;1928587;73;20154;-75
2021/10/29 06:34:15;;;;;;;;;;;9.60;99.90;;;;;;1928787;74;20853;-75
2021/10/29 06:36:41;;;;;;;;;;;9.60;99.90;;;;;;1928838;74;20181;-74
2021/10/29 06:39:08;;;;;;;;;;;9.60;99.90;;;;;;1947576;73;20449;-74
2021/10/29 06:41:36;;;;;;;;;;;9.70;99.90;;;;;;1963246;73;20452;-75
2021/10/29 06:44:20;;;;;;;;;;;9.70;99.90;;;;;;1963267;72;20197;-74
2021/10/29 06:46:41;;;;;;;;;;;9.50;99.90;;;;;;1959975;73;20119;-74
2021/10/29 06:59:58;;;;;;;;;;;9.60;99.90;;;;;;1963212;73;20175;-75
2021/10/29 07:05:29;;;;;;;;;;;9.60;99.90;;;;;;1963192;73;20223;-75
2021/10/29 07:40:36;;;;;;;;;;;10.20;99.90;;;;;;1895840;76;20197;-75
2021/10/29 07:43:06;;;;;;;;;;;10.30;99.90;;;;;;1896123;75;20180;-75
2021/10/29 07:45:28;;;;;;;;;;;10.30;99.90;;;;;;1894809;75;20145;-75
2021/10/29 07:47:56;;;;;;;;;;;10.30;99.90;;;;;;1895944;76;20179;-75
2021/10/29 07:50:23;;;;;;;;;;;10.40;99.90;;;;;;1896064;76;20159;-76
2021/10/29 07:52:51;;;;;;;;;;;10.50;99.90;;;;;;1895833;76;20112;-74
2021/10/29 07:55:20;;;;;;;;;;;10.50;99.90;;;;;;1895871;76;20155;-75
2021/10/29 07:57:47;;;;;;;;;;;10.60;99.90;;;;;;1896056;76;20110;-77
2021/10/29 08:00:15;;;;;;;;;;;10.70;99.90;;;;;;1895931;76;20456;-75
2021/10/29 08:02:42;;;;;;;;;;;10.70;99.90;;;;;;1895828;76;20112;-75
2021/10/29 08:05:09;;;;;;;;;;;10.80;99.90;;;;;;1895635;76;20171;-76
2021/10/29 08:07:36;;;;;;;;;;;10.90;99.90;;;;;;1895892;76;20116;-75
2021/10/29 08:10:05;;;;;;;;;;;10.80;99.90;;;;;;1895900;76;20175;-76
2021/10/29 08:12:32;;;;;;;;;;;10.90;99.90;;;;;;1908664;73;20172;-75
2021/10/29 08:15:02;;;;;;;;;;;11.00;99.90;;;;;;1970250;73;20228;-75
2021/10/29 08:17:28;;;;;;;;;;;11.00;99.90;;;;;;1970039;73;20196;-75
2021/10/29 08:19:55;;;;;;;;;;;11.10;99.90;;;;;;1970257;73;20197;-74
2021/10/29 08:22:21;;;;;;;;;;;11.10;99.90;;;;;;1970495;72;20155;-75
2021/10/29 08:24:48;;;;;;;;;;;11.10;99.90;;;;;;1970097;73;20163;-75
2021/10/29 08:27:15;;;;;;;;;;;11.20;99.90;;;;;;1970210;73;20120;-75
2021/10/29 08:29:42;;;;;;;;;;;11.30;99.90;;;;;;1962691;73;20162;-74
2021/10/29 08:32:10;;;;;;;;;;;11.30;99.90;;;;;;1898511;73;20378;-75
2021/10/29 08:34:37;;;;;;;;;;;11.40;99.90;;;;;;1895938;76;20112;-74
2021/10/29 08:37:06;;;;;;;;;;;11.40;99.90;;;;;;1911853;73;20154;-75
2021/10/29 08:39:38;;;;;;;;;;;11.50;99.90;;;;;;1929005;74;20440;-74
2021/10/29 08:42:06;;;;;;;;;;;11.50;99.90;;;;;;1928926;74;20125;-75
2021/10/29 08:44:33;;;;;;;;;;;11.70;99.90;;;;;;1928958;74;20181;-75
2021/10/29 08:47:02;;;;;;;;;;;11.70;99.90;;;;;;1928644;74;20215;-75
2021/10/29 08:49:33;;;;;;;;;;;11.80;99.90;;;;;;1928711;74;20203;-74
2021/10/29 08:52:00;;;;;;;;;;;11.70;99.90;;;;;;1928731;73;20193;-75
2021/10/29 08:54:28;;;;;;;;;;;11.90;99.90;;;;;;1928854;74;20102;-74
2021/10/29 08:56:56;;;;;;;;;;;12.00;99.90;;;;;;1928637;74;20203;-74
2021/10/29 08:59:28;;;;;;;;;;;12.00;99.90;;;;;;1929016;74;20161;-75
2021/10/29 09:02:09;;;;;;;;;;;12.00;99.90;;;;;;1928799;74;20535;-75
2021/10/29 09:32:01;;;;;;;;;;;13.00;99.90;;;;;;1859701;77;20660;-69
2021/10/29 09:34:28;;;;;;;;;;;13.10;99.90;;;;;;1859707;77;20182;-71
2021/10/29 09:36:55;;;;;;;;;;;13.20;99.90;;;;;;1859764;77;20169;-70
2021/10/29 09:39:23;;;;;;;;;;;13.30;99.90;;;;;;1859923;77;20208;-70
2021/10/29 09:42:07;;;;;;;;;;;13.30;99.90;;;;;;1847645;77;20172;-71
2021/10/29 09:44:38;;;;;;;;;;;13.30;99.90;;;;;;1828255;78;20167;-71
2021/10/29 09:47:05;;;;;;;;;;;13.40;99.90;;;;;;1828069;78;20175;-70
2021/10/29 09:49:50;;;;;;;;;;;13.50;99.90;;;;;;1828561;78;20180;-71
2021/10/29 09:54:43;;;;;;;;;;;13.80;99.90;;;;;;1828239;78;20136;-71
2021/10/29 09:57:07;;;;;;;;;;;13.90;99.90;;;;;;1824790;78;20124;-70
2021/10/29 09:59:34;;;;;;;;;;;13.90;99.90;;;;;;1828341;78;20163;-70
2021/10/29 10:02:02;;;;;;;;;;;14.00;99.90;;;;;;1828310;78;20117;-70
2021/10/29 10:04:29;;;;;;;;;;;14.10;99.90;;;;;;1828429;78;20172;-70
2021/10/29 10:06:56;;;;;;;;;;;14.10;99.90;;;;;;1828198;78;20167;-71
2021/10/29 10:09:24;;;;;;;;;;;14.20;99.90;;;;;;1828379;78;20154;-69
2021/10/29 10:11:52;;;;;;;;;;;14.30;99.90;;;;;;1824828;78;20133;-71
2021/10/29 10:14:19;;;;;;;;;;;14.30;99.90;;;;;;1817401;79;20480;-70
2021/10/29 10:16:47;;;;;;;;;;;14.40;99.90;;;;;;1817253;79;20164;-71
2021/10/29 10:19:16;;;;;;;;;;;14.40;99.90;;;;;;1817458;78;20176;-71
2021/10/29 10:21:45;;;;;;;;;;;14.50;99.90;;;;;;1817336;79;20172;-70
2021/10/29 10:24:15;;;;;;;;;;;14.50;99.90;;;;;;1817501;78;20132;-70
2021/10/29 10:26:52;;;;;;;;;;;14.50;99.90;;;;;;1816914;79;20521;-71
2021/10/29 10:40:40;;;;;;;;;;;14.80;99.90;;;;;;1806694;78;20217;-69
2021/10/29 10:45:51;;;;;;;;;;;14.90;99.90;;;;;;1816474;79;20202;-70
2021/10/29 10:48:23;;;;;;;;;;;14.90;99.90;;;;;;1816675;78;20132;-69
2021/10/29 10:50:51;;;;;;;;;;;15.00;99.90;;;;;;1816649;79;20332;-70
2021/10/29 10:53:22;;;;;;;;;;;15.20;99.90;;;;;;1816986;78;20231;-70
2021/10/29 10:56:12;;;;;;;;;;;15.20;99.90;;;;;;1816680;78;20180;-69
2021/10/29 10:59:00;;;;;;;;;;;15.40;99.90;;;;;;1815676;79;20171;-72
2021/10/29 11:01:44;;;;;;;;;;;15.50;99.90;;;;;;1816137;78;20216;-72
2021/10/29 11:04:47;;;;;;;;;;;15.70;99.90;;;;;;1813008;78;20340;-70
2021/10/29 11:06:29;;;;;;;;;;;15.80;99.90;;;;;;1806703;79;20124;-71
2021/10/29 11:11:39;;;;;;;;;;;16.00;99.90;;;;;;1817235;79;20439;-70
2021/10/29 11:14:06;;;;;;;;;;;16.20;99.90;;;;;;1812964;79;20129;-70
2021/10/29 11:16:42;;;;;;;;;;;16.30;99.90;;;;;;1817143;79;20175;-70
2021/10/29 11:19:12;;;;;;;;;;;16.40;99.90;;;;;;1816312;78;20179;-69
2021/10/29 11:21:55;;;;;;;;;;;16.50;99.90;;;;;;1816958;78;20131;-70
2021/10/29 11:24:37;;;;;;;;;;;16.60;99.90;;;;;;1817079;79;20192;-70
2021/10/29 11:27:06;;;;;;;;;;;16.70;99.90;;;;;;1816937;79;20214;-70
2021/10/29 11:29:35;;;;;;;;;;;16.80;99.90;;;;;;1817227;78;20284;-70
2021/10/29 11:32:03;;;;;;;;;;;16.80;99.90;;;;;;1815171;79;20282;-71
2021/10/29 11:34:30;;;;;;;;;;;16.90;99.90;;;;;;1827416;78;20206;-70
2021/10/29 11:36:57;;;;;;;;;;;17.00;99.90;;;;;;1828054;78;20123;-70
2021/10/29 11:39:24;;;;;;;;;;;16.90;99.90;;;;;;1828006;77;20207;-70
2021/10/29 11:41:52;;;;;;;;;;;16.90;99.90;;;;;;1828133;78;20189;-70
2021/10/29 11:44:21;;;;;;;;;;;16.90;99.90;;;;;;1828299;77;20212;-69
2021/10/29 11:46:48;;;;;;;;;;;16.90;99.90;;;;;;1826467;78;20451;-70
2021/10/29 11:49:16;;;;;;;;;;;16.80;99.90;;;;;;1828399;78;20165;-69
2021/10/29 11:51:44;;;;;;;;;;;16.90;99.90;;;;;;1828314;78;20126;-69
2021/10/29 11:54:17;;;;;;;;;;;16.90;99.90;;;;;;1828402;78;20126;-68
2021/10/29 12:07:41;;;;;;;;;;;17.20;99.90;;;;;;1817095;79;20265;-70
2021/10/29 12:10:18;;;;;;;;;;;17.20;99.90;;;;;;1817200;78;20210;-69
2021/10/29 12:12:45;;;;;;;;;;;17.40;99.90;;;;;;1816898;78;20220;-70
2021/10/29 12:15:21;;;;;;;;;;;17.50;99.90;;;;;;1816943;78;20173;-69
2021/10/29 12:17:55;;;;;;;;;;;17.50;99.90;;;;;;1817126;78;20387;-69
2021/10/29 12:20:21;;;;;;;;;;;17.60;99.90;;;;;;1815919;79;20137;-70
2021/10/29 12:22:51;;;;;;;;;;;17.60;99.90;;;;;;1817189;78;20152;-71
2021/10/29 12:25:23;;;;;;;;;;;17.60;99.90;;;;;;1816807;78;20159;-70
2021/10/29 12:28:07;;;;;;;;;;;17.70;99.90;;;;;;1824579;78;20158;-71
2021/10/29 12:33:16;;;;;;;;;;;17.80;99.90;;;;;;1830393;78;20199;-70
2021/10/29 12:52:03;;;;;;;;;;;18.20;99.90;;;;;;1830589;78;20179;-70
2021/10/29 13:02:24;;;;;;;;;;;18.40;99.90;;;;;;1817515;79;20538;-70
2021/10/29 13:04:55;;;;;;;;;;;18.50;99.90;;;;;;1817522;79;20469;-69
2021/10/29 13:07:28;;;;;;;;;;;18.60;99.90;;;;;;1817232;78;20188;-70
2021/10/29 13:10:05;;;;;;;;;;;18.60;99.90;;;;;;1817558;78;20129;-70
2021/10/29 13:12:42;;;;;;;;;;;18.60;99.90;;;;;;1817534;78;20183;-70
2021/10/29 13:15:01;;;;;;;;;;;18.60;99.90;;;;;;1816931;79;20181;-69
2021/10/29 13:17:38;;;;;;;;;;;18.50;99.90;;;;;;1821892;79;20180;-70
2021/10/29 13:26:02;;;;;;;;;;;18.50;99.90;;;;;;1822003;79;20132;-70
2021/10/29 13:28:11;;;;;;;;;;;18.60;99.90;;;;;;1818023;78;20152;-69
2021/10/29 13:52:04;;;;;;;;;;;18.20;99.90;;;;;;1813183;78;20131;-70
2021/10/29 13:54:50;;;;;;;;;;;18.10;99.90;;;;;;1828902;78;20454;-70
2021/10/29 13:57:26;;;;;;;;;;;18.00;99.90;;;;;;1829411;78;20483;-70
2021/10/29 14:00:08;;;;;;;;;;;18.00;99.90;;;;;;1827450;78;20308;-70
2021/10/29 14:02:39;;;;;;;;;;;17.80;99.90;;;;;;1827417;78;20517;-70
2021/10/29 14:29:41;;;;;;;;;;;17.10;99.90;;;;;;1828384;78;20171;-71
2021/10/29 14:32:15;;;;;;;;;;;17.00;99.90;;;;;;1826876;77;20486;-72
2021/10/29 14:34:41;;;;;;;;;;;17.00;99.90;;;;;;1825698;78;20154;-71
2021/10/29 14:37:16;;;;;;;;;;;17.00;99.90;;;;;;1827399;78;20134;-70
2021/10/29 14:40:10;;;;;;;;;;;16.90;99.90;;;;;;1828047;78;20182;-70
2021/10/29 14:42:17;;;;;;;;;;;16.90;99.90;;;;;;1818720;78;20130;-70
2021/10/29 14:44:50;;;;;;;;;;;16.80;99.90;;;;;;1826893;78;20150;-69
2021/10/29 14:47:20;;;;;;;;;;;16.80;99.90;;;;;;1824991;78;20518;-69
2021/10/29 14:49:59;;;;;;;;;;;16.80;99.90;;;;;;1826438;78;20208;-70
2021/10/29 14:52:38;;;;;;;;;;;16.70;99.90;;;;;;1815761;78;20162;-70
2021/10/29 15:00:47;;;;;;;;;;;16.60;99.90;;;;;;1817076;79;20211;-70
2021/10/29 15:05:53;;;;;;;;;;;16.60;99.90;;;;;;1894593;74;20182;-73
2021/10/29 15:16:43;;;;;;;;;;;16.40;99.90;;;;;;1928969;73;20208;-72
2021/10/29 15:24:38;;;;;;;;;;;16.40;99.90;;;;;;1924774;74;20431;-73
2021/10/29 15:27:15;;;;;;;;;;;16.20;99.90;;;;;;1928657;73;20226;-72
2021/10/29 15:29:52;;;;;;;;;;;16.20;99.90;;;;;;1926887;74;20188;-73
2021/10/29 15:32:28;;;;;;;;;;;16.20;99.90;;;;;;1927230;74;20121;-72
2021/10/29 15:45:43;;;;;;;;;;;16.10;99.90;;;;;;1932304;74;20161;-72
2021/10/29 15:48:18;;;;;;;;;;;16.00;99.90;;;;;;1931249;73;20395;-73
2021/10/29 15:50:43;;;;;;;;;;;15.90;99.90;;;;;;1926286;74;20166;-72
2021/10/29 15:53:12;;;;;;;;;;;15.90;99.90;;;;;;1932429;74;20273;-73
2021/10/29 16:03:17;;;;;;;;;;;15.70;99.90;;;;;;1932438;73;20121;-72
2021/10/29 16:19:24;;;;;;;;;;;15.50;99.90;;;;;;1898623;75;20202;-72
2021/10/29 16:21:51;;;;;;;;;;;15.60;99.90;;;;;;1898847;76;20174;-72
2021/10/29 16:24:19;;;;;;;;;;;15.50;99.90;;;;;;1898694;75;20140;-72
2021/10/29 16:26:50;;;;;;;;;;;15.50;99.90;;;;;;1898598;76;20159;-72
2021/10/29 16:29:23;;;;;;;;;;;15.40;99.90;;;;;;1899100;75;20166;-72
2021/10/29 16:31:47;;;;;;;;;;;15.40;99.90;;;;;;1898181;76;20116;-72
2021/10/29 16:34:13;;;;;;;;;;;15.30;99.90;;;;;;1898591;74;20147;-72
2021/10/29 16:36:41;;;;;;;;;;;15.30;99.90;;;;;;1898604;76;20407;-72
2021/10/29 16:39:09;;;;;;;;;;;15.20;99.90;;;;;;1898672;74;20108;-72
2021/10/29 16:41:36;;;;;;;;;;;15.20;99.90;;;;;;1898661;74;20127;-72
2021/10/29 16:44:03;;;;;;;;;;;15.10;99.90;;;;;;1898755;74;20479;-72
2021/10/29 16:46:30;;;;;;;;;;;15.10;99.90;;;;;;1896325;74;20190;-72
2021/10/29 16:48:57;;;;;;;;;;;15.10;99.90;;;;;;1896895;75;20520;-72
2021/10/29 16:51:25;;;;;;;;;;;15.10;99.90;;;;;;1896594;76;20186;-72
2021/10/29 16:53:52;;;;;;;;;;;15.10;99.90;;;;;;1896195;74;20159;-73
2021/10/29 16:56:18;;;;;;;;;;;15.00;99.90;;;;;;1895975;75;20116;-73
2021/10/29 16:58:47;;;;;;;;;;;15.00;99.90;;;;;;1899606;74;20214;-72
2021/10/29 17:01:13;;;;;;;;;;;15.00;99.90;;;;;;1960857;73;20176;-72
2021/10/29 17:03:40;;;;;;;;;;;14.90;99.90;;;;;;1963798;72;20395;-72
2021/10/29 17:06:07;;;;;;;;;;;15.00;99.90;;;;;;1963630;73;20198;-72
2021/10/29 17:08:34;;;;;;;;;;;14.80;99.90;;;;;;1963728;73;20168;-72
2021/10/29 17:11:01;;;;;;;;;;;14.80;99.90;;;;;;1963819;73;20113;-72
2021/10/29 17:13:28;;;;;;;;;;;14.80;99.90;;;;;;1963666;72;20161;-72
2021/10/29 17:15:54;;;;;;;;;;;14.80;99.90;;;;;;1963666;73;20476;-73
2021/10/29 17:18:21;;;;;;;;;;;14.80;99.90;;;;;;1963876;73;20117;-73
2021/10/29 17:20:48;;;;;;;;;;;14.70;99.90;;;;;;1963664;73;20461;-73
2021/10/29 17:23:15;;;;;;;;;;;14.60;99.90;;;;;;1963657;73;20113;-73
2021/10/29 17:25:42;;;;;;;;;;;14.60;99.90;;;;;;1963442;73;20162;-73
2021/10/29 17:28:09;;;;;;;;;;;14.60;99.90;;;;;;1963775;73;20190;-73
2021/10/29 17:30:36;;;;;;;;;;;14.60;99.90;;;;;;1963381;73;20106;-73
2021/10/29 17:33:03;;;;;;;;;;;14.50;99.90;;;;;;1963661;73;20125;-73
2021/10/29 17:35:30;;;;;;;;;;;14.50;99.90;;;;;;1963463;73;20145;-72
2021/10/29 17:37:57;;;;;;;;;;;14.50;99.90;;;;;;1963733;73;20472;-73
2021/10/29 17:40:23;;;;;;;;;;;14.60;99.90;;;;;;1963657;73;20180;-72
2021/10/29 17:42:51;;;;;;;;;;;14.50;99.90;;;;;;1963682;73;20164;-73
2021/10/29 17:45:17;;;;;;;;;;;14.40;99.90;;;;;;1963476;73;20168;-73
2021/10/29 17:47:44;;;;;;;;;;;14.40;99.90;;;;;;1961823;73;20152;-73
2021/10/29 17:50:11;;;;;;;;;;;14.40;99.90;;;;;;1921273;74;20161;-72
2021/10/29 17:52:38;;;;;;;;;;;14.30;99.90;;;;;;1921781;74;20387;-73
2021/10/29 17:55:05;;;;;;;;;;;14.30;99.90;;;;;;1921567;74;20188;-73
2021/10/29 17:57:32;;;;;;;;;;;14.30;99.90;;;;;;1921797;74;20148;-73
2021/10/29 17:59:59;;;;;;;;;;;14.30;99.90;;;;;;1921689;75;20217;-73
2021/10/29 18:02:26;;;;;;;;;;;14.30;99.90;;;;;;1921653;75;20185;-73
2021/10/29 18:04:55;;;;;;;;;;;14.30;99.90;;;;;;1921767;74;20500;-73
2021/10/29 18:07:24;;;;;;;;;;;14.30;99.90;;;;;;1921646;74;20165;-73
2021/10/29 18:09:52;;;;;;;;;;;14.20;99.90;;;;;;1921935;75;20169;-74
2021/10/29 18:12:18;;;;;;;;;;;14.30;99.90;;;;;;1921835;74;20125;-74
2021/10/29 18:14:45;;;;;;;;;;;14.30;99.90;;;;;;1921871;74;20544;-74
2021/10/29 18:17:14;;;;;;;;;;;14.20;99.90;;;;;;1943772;72;20155;-74
2021/10/29 18:19:41;;;;;;;;;;;14.20;99.90;;;;;;1927653;73;20126;-73
2021/10/29 18:22:08;;;;;;;;;;;14.30;99.90;;;;;;1928015;74;20157;-74
2021/10/29 18:24:37;;;;;;;;;;;14.20;99.90;;;;;;1927815;74;20207;-74
2021/10/29 18:27:04;;;;;;;;;;;14.20;99.90;;;;;;1926587;74;20157;-74
2021/10/29 18:29:31;;;;;;;;;;;14.10;99.90;;;;;;1927732;73;20164;-73
2021/10/29 18:31:58;;;;;;;;;;;14.10;99.90;;;;;;1928033;74;20176;-74